sensor_id;sensor_type;location;lat;lon;timestamp;P1;durP1;ratioP1;P2;durP2;ratioP2
34236;SDS011;20501;45.956;13.632;2023-04-19T00:02:16;3.58;;;2.38;;
34236;SDS011;20501;45.956;13.632;2023-04-19T00:04:42;2.75;;;1.98;;
34236;SDS011;20501;45.956;13.632;2023-04-19T00:07:09;3.55;;;2.00;;
34236;SDS011;20501;45.956;13.632;2023-04-19T00:09:35;3.63;;;2.17;;
34236;SDS011;20501;45.956;13.632;2023-04-19T00:12:01;3.00;;;2.25;;
34236;SDS011;20501;45.956;13.632;2023-04-19T00:14:27;3.13;;;2.10;;
34236;SDS011;20501;45.956;13.632;2023-04-19T00:16:52;3.22;;;2.20;;
34236;SDS011;20501;45.956;13.632;2023-04-19T00:19:18;2.55;;;2.15;;
34236;SDS011;20501;45.956;13.632;2023-04-19T00:21:43;2.40;;;2.00;;
34236;SDS011;20501;45.956;13.632;2023-04-19T00:24:08;3.00;;;2.13;;
34236;SDS011;20501;45.956;13.632;2023-04-19T00:26:34;2.15;;;1.90;;
34236;SDS011;20501;45.956;13.632;2023-04-19T00:28:59;4.95;;;2.38;;
34236;SDS011;20501;45.956;13.632;2023-04-19T00:31:25;2.85;;;1.90;;
34236;SDS011;20501;45.956;13.632;2023-04-19T00:33:50;2.40;;;1.95;;
34236;SDS011;20501;45.956;13.632;2023-04-19T00:36:15;4.75;;;2.25;;
34236;SDS011;20501;45.956;13.632;2023-04-19T00:38:41;3.55;;;2.58;;
34236;SDS011;20501;45.956;13.632;2023-04-19T00:41:06;2.90;;;1.98;;
34236;SDS011;20501;45.956;13.632;2023-04-19T00:43:32;2.70;;;2.28;;
34236;SDS011;20501;45.956;13.632;2023-04-19T00:45:57;2.90;;;1.90;;
34236;SDS011;20501;45.956;13.632;2023-04-19T00:48:23;2.85;;;1.95;;
34236;SDS011;20501;45.956;13.632;2023-04-19T00:50:49;3.03;;;2.00;;
34236;SDS011;20501;45.956;13.632;2023-04-19T00:53:15;3.22;;;2.28;;
34236;SDS011;20501;45.956;13.632;2023-04-19T00:55:40;2.83;;;2.15;;
34236;SDS011;20501;45.956;13.632;2023-04-19T00:58:07;4.35;;;2.40;;
34236;SDS011;20501;45.956;13.632;2023-04-19T01:00:33;2.50;;;2.05;;
34236;SDS011;20501;45.956;13.632;2023-04-19T01:02:59;3.73;;;2.80;;
34236;SDS011;20501;45.956;13.632;2023-04-19T01:05:25;2.60;;;2.08;;
34236;SDS011;20501;45.956;13.632;2023-04-19T01:07:51;2.47;;;2.03;;
34236;SDS011;20501;45.956;13.632;2023-04-19T01:10:16;3.10;;;2.20;;
34236;SDS011;20501;45.956;13.632;2023-04-19T01:12:42;2.70;;;2.10;;
34236;SDS011;20501;45.956;13.632;2023-04-19T01:15:07;3.53;;;2.50;;
34236;SDS011;20501;45.956;13.632;2023-04-19T01:17:33;3.63;;;2.60;;
34236;SDS011;20501;45.956;13.632;2023-04-19T01:20:02;5.13;;;3.17;;
34236;SDS011;20501;45.956;13.632;2023-04-19T01:22:32;5.03;;;3.08;;
34236;SDS011;20501;45.956;13.632;2023-04-19T01:24:57;3.67;;;2.50;;
34236;SDS011;20501;45.956;13.632;2023-04-19T01:27:23;6.65;;;3.88;;
34236;SDS011;20501;45.956;13.632;2023-04-19T01:29:48;8.07;;;4.15;;
34236;SDS011;20501;45.956;13.632;2023-04-19T01:32:14;3.83;;;2.60;;
34236;SDS011;20501;45.956;13.632;2023-04-19T01:34:39;8.10;;;4.28;;
34236;SDS011;20501;45.956;13.632;2023-04-19T01:37:06;10.30;;;4.88;;
34236;SDS011;20501;45.956;13.632;2023-04-19T01:39:32;9.98;;;4.60;;
34236;SDS011;20501;45.956;13.632;2023-04-19T01:41:57;8.43;;;3.22;;
34236;SDS011;20501;45.956;13.632;2023-04-19T01:44:22;7.40;;;4.20;;
34236;SDS011;20501;45.956;13.632;2023-04-19T01:46:48;7.55;;;3.45;;
34236;SDS011;20501;45.956;13.632;2023-04-19T01:49:13;5.65;;;3.13;;
34236;SDS011;20501;45.956;13.632;2023-04-19T01:51:39;6.88;;;3.55;;
34236;SDS011;20501;45.956;13.632;2023-04-19T01:54:04;8.63;;;4.18;;
34236;SDS011;20501;45.956;13.632;2023-04-19T01:56:30;19.60;;;8.48;;
34236;SDS011;20501;45.956;13.632;2023-04-19T01:58:56;22.75;;;9.70;;
34236;SDS011;20501;45.956;13.632;2023-04-19T02:01:22;13.02;;;6.43;;
34236;SDS011;20501;45.956;13.632;2023-04-19T02:03:47;24.80;;;8.85;;
34236;SDS011;20501;45.956;13.632;2023-04-19T02:06:13;21.63;;;9.98;;
34236;SDS011;20501;45.956;13.632;2023-04-19T02:08:39;15.77;;;7.05;;
34236;SDS011;20501;45.956;13.632;2023-04-19T02:11:09;12.25;;;5.80;;
34236;SDS011;20501;45.956;13.632;2023-04-19T02:13:36;19.90;;;9.52;;
34236;SDS011;20501;45.956;13.632;2023-04-19T02:16:01;20.73;;;9.73;;
34236;SDS011;20501;45.956;13.632;2023-04-19T02:18:27;25.65;;;11.05;;
34236;SDS011;20501;45.956;13.632;2023-04-19T02:20:57;21.17;;;9.10;;
34236;SDS011;20501;45.956;13.632;2023-04-19T02:23:23;19.48;;;10.00;;
34236;SDS011;20501;45.956;13.632;2023-04-19T02:25:49;18.85;;;9.77;;
34236;SDS011;20501;45.956;13.632;2023-04-19T02:28:15;22.20;;;9.80;;
34236;SDS011;20501;45.956;13.632;2023-04-19T02:30:41;20.48;;;9.35;;
34236;SDS011;20501;45.956;13.632;2023-04-19T02:33:06;15.80;;;9.00;;
34236;SDS011;20501;45.956;13.632;2023-04-19T02:35:32;17.17;;;8.55;;
34236;SDS011;20501;45.956;13.632;2023-04-19T02:37:58;20.80;;;8.68;;
34236;SDS011;20501;45.956;13.632;2023-04-19T02:42:50;17.75;;;7.90;;
34236;SDS011;20501;45.956;13.632;2023-04-19T02:45:16;16.08;;;8.05;;
34236;SDS011;20501;45.956;13.632;2023-04-19T02:47:42;19.92;;;8.30;;
34236;SDS011;20501;45.956;13.632;2023-04-19T02:50:07;16.83;;;7.65;;
34236;SDS011;20501;45.956;13.632;2023-04-19T02:52:33;16.67;;;7.97;;
34236;SDS011;20501;45.956;13.632;2023-04-19T02:54:59;17.50;;;7.10;;
34236;SDS011;20501;45.956;13.632;2023-04-19T02:57:24;14.07;;;7.28;;
34236;SDS011;20501;45.956;13.632;2023-04-19T02:59:49;13.30;;;7.28;;
34236;SDS011;20501;45.956;13.632;2023-04-19T03:02:15;16.67;;;7.57;;
34236;SDS011;20501;45.956;13.632;2023-04-19T03:04:40;16.70;;;6.70;;
34236;SDS011;20501;45.956;13.632;2023-04-19T03:07:07;18.10;;;7.20;;
34236;SDS011;20501;45.956;13.632;2023-04-19T03:09:33;14.25;;;6.85;;
34236;SDS011;20501;45.956;13.632;2023-04-19T03:11:59;14.65;;;6.75;;
34236;SDS011;20501;45.956;13.632;2023-04-19T03:14:25;13.70;;;6.13;;
34236;SDS011;20501;45.956;13.632;2023-04-19T03:16:50;19.83;;;7.22;;
34236;SDS011;20501;45.956;13.632;2023-04-19T03:19:16;12.23;;;6.60;;
34236;SDS011;20501;45.956;13.632;2023-04-19T03:21:41;16.00;;;7.35;;
34236;SDS011;20501;45.956;13.632;2023-04-19T03:24:07;15.38;;;6.80;;
34236;SDS011;20501;45.956;13.632;2023-04-19T03:26:32;15.95;;;6.38;;
34236;SDS011;20501;45.956;13.632;2023-04-19T03:28:58;12.23;;;6.75;;
34236;SDS011;20501;45.956;13.632;2023-04-19T03:31:23;11.23;;;6.28;;
34236;SDS011;20501;45.956;13.632;2023-04-19T03:33:49;13.23;;;6.05;;
34236;SDS011;20501;45.956;13.632;2023-04-19T03:36:14;13.02;;;6.30;;
34236;SDS011;20501;45.956;13.632;2023-04-19T03:38:40;9.27;;;5.50;;
34236;SDS011;20501;45.956;13.632;2023-04-19T03:41:16;9.73;;;5.53;;
34236;SDS011;20501;45.956;13.632;2023-04-19T03:43:42;9.25;;;5.53;;
34236;SDS011;20501;45.956;13.632;2023-04-19T03:46:08;10.68;;;5.95;;
34236;SDS011;20501;45.956;13.632;2023-04-19T03:48:33;9.18;;;5.32;;
34236;SDS011;20501;45.956;13.632;2023-04-19T03:50:59;11.10;;;5.38;;
34236;SDS011;20501;45.956;13.632;2023-04-19T03:53:25;12.90;;;6.13;;
34236;SDS011;20501;45.956;13.632;2023-04-19T03:55:50;9.57;;;5.32;;
34236;SDS011;20501;45.956;13.632;2023-04-19T03:58:16;22.02;;;10.68;;
34236;SDS011;20501;45.956;13.632;2023-04-19T04:00:41;9.90;;;5.60;;
34236;SDS011;20501;45.956;13.632;2023-04-19T04:03:07;11.45;;;5.72;;
34236;SDS011;20501;45.956;13.632;2023-04-19T04:05:33;13.40;;;5.85;;
34236;SDS011;20501;45.956;13.632;2023-04-19T04:07:59;9.65;;;4.80;;
34236;SDS011;20501;45.956;13.632;2023-04-19T04:10:24;10.48;;;5.57;;
34236;SDS011;20501;45.956;13.632;2023-04-19T04:12:49;10.07;;;4.70;;
34236;SDS011;20501;45.956;13.632;2023-04-19T04:15:15;8.52;;;5.03;;
34236;SDS011;20501;45.956;13.632;2023-04-19T04:17:40;9.35;;;5.38;;
34236;SDS011;20501;45.956;13.632;2023-04-19T04:20:06;9.63;;;5.53;;
34236;SDS011;20501;45.956;13.632;2023-04-19T04:22:32;11.60;;;5.10;;
34236;SDS011;20501;45.956;13.632;2023-04-19T04:24:58;5.65;;;3.20;;
34236;SDS011;20501;45.956;13.632;2023-04-19T04:27:25;9.00;;;4.38;;
34236;SDS011;20501;45.956;13.632;2023-04-19T04:29:51;10.88;;;3.92;;
34236;SDS011;20501;45.956;13.632;2023-04-19T04:32:16;6.90;;;3.20;;
34236;SDS011;20501;45.956;13.632;2023-04-19T04:34:47;5.18;;;3.28;;
34236;SDS011;20501;45.956;13.632;2023-04-19T04:37:12;4.68;;;2.78;;
34236;SDS011;20501;45.956;13.632;2023-04-19T04:39:38;4.97;;;3.28;;
34236;SDS011;20501;45.956;13.632;2023-04-19T04:42:04;7.45;;;3.47;;
34236;SDS011;20501;45.956;13.632;2023-04-19T04:44:33;5.00;;;3.00;;
34236;SDS011;20501;45.956;13.632;2023-04-19T04:47:01;7.68;;;3.35;;
34236;SDS011;20501;45.956;13.632;2023-04-19T04:49:28;4.35;;;2.95;;
34236;SDS011;20501;45.956;13.632;2023-04-19T04:51:53;7.90;;;2.83;;
34236;SDS011;20501;45.956;13.632;2023-04-19T04:54:19;5.28;;;3.35;;
34236;SDS011;20501;45.956;13.632;2023-04-19T04:56:45;5.72;;;3.22;;
34236;SDS011;20501;45.956;13.632;2023-04-19T04:59:11;4.22;;;2.60;;
34236;SDS011;20501;45.956;13.632;2023-04-19T05:01:36;8.05;;;4.10;;
34236;SDS011;20501;45.956;13.632;2023-04-19T05:04:02;5.07;;;3.05;;
34236;SDS011;20501;45.956;13.632;2023-04-19T05:06:27;6.78;;;3.20;;
34236;SDS011;20501;45.956;13.632;2023-04-19T05:08:52;5.97;;;2.95;;
34236;SDS011;20501;45.956;13.632;2023-04-19T05:11:18;5.13;;;3.20;;
34236;SDS011;20501;45.956;13.632;2023-04-19T05:13:44;5.35;;;2.80;;
34236;SDS011;20501;45.956;13.632;2023-04-19T05:16:09;4.00;;;3.00;;
34236;SDS011;20501;45.956;13.632;2023-04-19T05:18:35;4.95;;;3.05;;
34236;SDS011;20501;45.956;13.632;2023-04-19T05:21:00;5.57;;;2.60;;
34236;SDS011;20501;45.956;13.632;2023-04-19T05:23:26;9.13;;;5.57;;
34236;SDS011;20501;45.956;13.632;2023-04-19T05:25:51;8.15;;;4.93;;
34236;SDS011;20501;45.956;13.632;2023-04-19T05:28:17;9.63;;;4.43;;
34236;SDS011;20501;45.956;13.632;2023-04-19T05:30:42;6.35;;;3.25;;
34236;SDS011;20501;45.956;13.632;2023-04-19T05:33:07;7.90;;;4.10;;
34236;SDS011;20501;45.956;13.632;2023-04-19T05:35:33;18.65;;;6.18;;
34236;SDS011;20501;45.956;13.632;2023-04-19T05:37:58;14.52;;;4.68;;
34236;SDS011;20501;45.956;13.632;2023-04-19T05:40:24;13.55;;;4.40;;
34236;SDS011;20501;45.956;13.632;2023-04-19T05:42:49;20.95;;;5.18;;
34236;SDS011;20501;45.956;13.632;2023-04-19T05:45:15;5.75;;;4.03;;
34236;SDS011;20501;45.956;13.632;2023-04-19T05:47:42;13.25;;;3.90;;
34236;SDS011;20501;45.956;13.632;2023-04-19T05:50:08;11.30;;;3.75;;
34236;SDS011;20501;45.956;13.632;2023-04-19T05:52:34;5.82;;;3.88;;
34236;SDS011;20501;45.956;13.632;2023-04-19T05:54:59;8.25;;;3.78;;
34236;SDS011;20501;45.956;13.632;2023-04-19T05:57:25;6.20;;;3.42;;
34236;SDS011;20501;45.956;13.632;2023-04-19T05:59:51;5.35;;;3.53;;
34236;SDS011;20501;45.956;13.632;2023-04-19T06:02:16;5.95;;;3.17;;
34236;SDS011;20501;45.956;13.632;2023-04-19T06:04:42;3.47;;;2.63;;
34236;SDS011;20501;45.956;13.632;2023-04-19T06:07:07;7.18;;;3.80;;
34236;SDS011;20501;45.956;13.632;2023-04-19T06:09:32;6.63;;;3.00;;
34236;SDS011;20501;45.956;13.632;2023-04-19T06:11:58;6.50;;;2.95;;
34236;SDS011;20501;45.956;13.632;2023-04-19T06:14:25;4.75;;;2.45;;
34236;SDS011;20501;45.956;13.632;2023-04-19T06:16:52;6.35;;;3.70;;
34236;SDS011;20501;45.956;13.632;2023-04-19T06:19:17;4.18;;;2.95;;
34236;SDS011;20501;45.956;13.632;2023-04-19T06:21:43;6.53;;;3.45;;
34236;SDS011;20501;45.956;13.632;2023-04-19T06:24:09;4.93;;;3.15;;
34236;SDS011;20501;45.956;13.632;2023-04-19T06:26:34;5.30;;;3.50;;
34236;SDS011;20501;45.956;13.632;2023-04-19T06:29:00;4.07;;;3.28;;
34236;SDS011;20501;45.956;13.632;2023-04-19T06:31:25;6.70;;;3.28;;
34236;SDS011;20501;45.956;13.632;2023-04-19T06:33:51;6.43;;;3.20;;
34236;SDS011;20501;45.956;13.632;2023-04-19T06:36:16;8.50;;;3.42;;
34236;SDS011;20501;45.956;13.632;2023-04-19T06:38:42;9.77;;;2.92;;
34236;SDS011;20501;45.956;13.632;2023-04-19T06:41:08;3.72;;;2.67;;
34236;SDS011;20501;45.956;13.632;2023-04-19T06:43:34;7.53;;;3.80;;
34236;SDS011;20501;45.956;13.632;2023-04-19T06:46:00;3.75;;;2.78;;
34236;SDS011;20501;45.956;13.632;2023-04-19T06:48:26;3.50;;;2.67;;
34236;SDS011;20501;45.956;13.632;2023-04-19T06:50:52;5.32;;;3.00;;
34236;SDS011;20501;45.956;13.632;2023-04-19T06:53:18;2.83;;;2.42;;
34236;SDS011;20501;45.956;13.632;2023-04-19T06:55:43;5.32;;;2.55;;
34236;SDS011;20501;45.956;13.632;2023-04-19T06:58:09;9.55;;;3.85;;
34236;SDS011;20501;45.956;13.632;2023-04-19T07:00:35;7.50;;;3.40;;
34236;SDS011;20501;45.956;13.632;2023-04-19T07:03:01;9.27;;;4.25;;
34236;SDS011;20501;45.956;13.632;2023-04-19T07:05:26;7.75;;;3.20;;
34236;SDS011;20501;45.956;13.632;2023-04-19T07:07:52;10.73;;;4.30;;
34236;SDS011;20501;45.956;13.632;2023-04-19T07:10:18;83.80;;;9.55;;
34236;SDS011;20501;45.956;13.632;2023-04-19T07:12:43;8.02;;;3.15;;
34236;SDS011;20501;45.956;13.632;2023-04-19T07:15:09;10.48;;;3.65;;
34236;SDS011;20501;45.956;13.632;2023-04-19T07:17:35;12.45;;;3.70;;
34236;SDS011;20501;45.956;13.632;2023-04-19T07:20:01;7.22;;;3.42;;
34236;SDS011;20501;45.956;13.632;2023-04-19T07:22:29;8.35;;;3.72;;
34236;SDS011;20501;45.956;13.632;2023-04-19T07:24:54;5.47;;;2.65;;
34236;SDS011;20501;45.956;13.632;2023-04-19T07:27:20;33.25;;;5.18;;
34236;SDS011;20501;45.956;13.632;2023-04-19T07:29:45;7.70;;;2.20;;
34236;SDS011;20501;45.956;13.632;2023-04-19T07:32:11;6.05;;;2.50;;
34236;SDS011;20501;45.956;13.632;2023-04-19T07:34:37;7.20;;;2.60;;
34236;SDS011;20501;45.956;13.632;2023-04-19T07:37:05;4.65;;;1.95;;
34236;SDS011;20501;45.956;13.632;2023-04-19T07:39:31;6.25;;;2.40;;
34236;SDS011;20501;45.956;13.632;2023-04-19T07:41:56;5.50;;;1.80;;
34236;SDS011;20501;45.956;13.632;2023-04-19T07:44:22;14.43;;;2.90;;
34236;SDS011;20501;45.956;13.632;2023-04-19T07:46:47;2.50;;;1.60;;
34236;SDS011;20501;45.956;13.632;2023-04-19T07:49:13;4.18;;;2.30;;
34236;SDS011;20501;45.956;13.632;2023-04-19T07:51:38;3.40;;;1.80;;
34236;SDS011;20501;45.956;13.632;2023-04-19T07:54:03;4.63;;;1.67;;
34236;SDS011;20501;45.956;13.632;2023-04-19T07:56:29;4.72;;;1.38;;
34236;SDS011;20501;45.956;13.632;2023-04-19T07:58:54;2.25;;;1.58;;
34236;SDS011;20501;45.956;13.632;2023-04-19T08:01:20;4.32;;;1.60;;
34236;SDS011;20501;45.956;13.632;2023-04-19T08:03:46;2.10;;;1.20;;
34236;SDS011;20501;45.956;13.632;2023-04-19T08:06:11;3.63;;;1.60;;
34236;SDS011;20501;45.956;13.632;2023-04-19T08:08:38;4.18;;;1.63;;
34236;SDS011;20501;45.956;13.632;2023-04-19T08:11:03;3.03;;;1.52;;
34236;SDS011;20501;45.956;13.632;2023-04-19T08:13:29;6.77;;;2.57;;
34236;SDS011;20501;45.956;13.632;2023-04-19T08:15:55;4.40;;;1.63;;
34236;SDS011;20501;45.956;13.632;2023-04-19T08:18:20;2.85;;;1.40;;
34236;SDS011;20501;45.956;13.632;2023-04-19T08:20:46;1.27;;;1.13;;
34236;SDS011;20501;45.956;13.632;2023-04-19T08:23:12;2.83;;;1.77;;
34236;SDS011;20501;45.956;13.632;2023-04-19T08:25:38;4.20;;;1.33;;
34236;SDS011;20501;45.956;13.632;2023-04-19T08:28:03;2.17;;;1.42;;
34236;SDS011;20501;45.956;13.632;2023-04-19T08:30:29;2.88;;;1.73;;
34236;SDS011;20501;45.956;13.632;2023-04-19T08:32:55;1.95;;;1.38;;
34236;SDS011;20501;45.956;13.632;2023-04-19T08:35:21;2.53;;;1.20;;
34236;SDS011;20501;45.956;13.632;2023-04-19T08:37:47;3.15;;;1.60;;
34236;SDS011;20501;45.956;13.632;2023-04-19T08:40:13;3.83;;;1.75;;
34236;SDS011;20501;45.956;13.632;2023-04-19T08:42:40;2.88;;;1.58;;
34236;SDS011;20501;45.956;13.632;2023-04-19T08:45:06;3.97;;;1.45;;
34236;SDS011;20501;45.956;13.632;2023-04-19T08:47:32;2.85;;;1.52;;
34236;SDS011;20501;45.956;13.632;2023-04-19T08:50:08;3.63;;;1.33;;
34236;SDS011;20501;45.956;13.632;2023-04-19T08:52:34;2.42;;;1.70;;
34236;SDS011;20501;45.956;13.632;2023-04-19T08:55:04;2.53;;;1.75;;
34236;SDS011;20501;45.956;13.632;2023-04-19T08:57:31;4.22;;;1.70;;
34236;SDS011;20501;45.956;13.632;2023-04-19T08:59:58;4.23;;;1.77;;
34236;SDS011;20501;45.956;13.632;2023-04-19T09:02:24;2.72;;;1.95;;
34236;SDS011;20501;45.956;13.632;2023-04-19T09:04:49;3.42;;;1.92;;
34236;SDS011;20501;45.956;13.632;2023-04-19T09:07:25;2.60;;;1.95;;
34236;SDS011;20501;45.956;13.632;2023-04-19T09:10:04;3.45;;;1.95;;
34236;SDS011;20501;45.956;13.632;2023-04-19T09:12:37;6.70;;;1.90;;
34236;SDS011;20501;45.956;13.632;2023-04-19T09:15:04;4.53;;;2.47;;
34236;SDS011;20501;45.956;13.632;2023-04-19T09:17:33;2.42;;;1.45;;
34236;SDS011;20501;45.956;13.632;2023-04-19T09:19:59;4.30;;;2.03;;
34236;SDS011;20501;45.956;13.632;2023-04-19T09:22:25;3.95;;;1.77;;
34236;SDS011;20501;45.956;13.632;2023-04-19T09:24:50;4.25;;;1.45;;
34236;SDS011;20501;45.956;13.632;2023-04-19T09:29:56;2.65;;;1.60;;
34236;SDS011;20501;45.956;13.632;2023-04-19T09:32:23;1.85;;;1.50;;
34236;SDS011;20501;45.956;13.632;2023-04-19T09:34:50;2.50;;;1.50;;
34236;SDS011;20501;45.956;13.632;2023-04-19T09:37:20;2.17;;;1.45;;
34236;SDS011;20501;45.956;13.632;2023-04-19T09:39:46;3.03;;;1.50;;
34236;SDS011;20501;45.956;13.632;2023-04-19T09:42:12;4.38;;;1.33;;
34236;SDS011;20501;45.956;13.632;2023-04-19T09:44:37;1.85;;;1.45;;
34236;SDS011;20501;45.956;13.632;2023-04-19T09:47:19;4.78;;;1.40;;
34236;SDS011;20501;45.956;13.632;2023-04-19T09:50:02;1.60;;;1.45;;
34236;SDS011;20501;45.956;13.632;2023-04-19T09:52:37;2.10;;;1.65;;
34236;SDS011;20501;45.956;13.632;2023-04-19T09:55:03;3.83;;;1.55;;
34236;SDS011;20501;45.956;13.632;2023-04-19T09:57:31;2.70;;;1.88;;
34236;SDS011;20501;45.956;13.632;2023-04-19T09:59:58;5.38;;;1.80;;
34236;SDS011;20501;45.956;13.632;2023-04-19T10:02:24;2.55;;;1.58;;
34236;SDS011;20501;45.956;13.632;2023-04-19T10:04:54;2.45;;;1.90;;
34236;SDS011;20501;45.956;13.632;2023-04-19T10:07:21;2.88;;;1.63;;
34236;SDS011;20501;45.956;13.632;2023-04-19T10:09:47;2.17;;;1.45;;
34236;SDS011;20501;45.956;13.632;2023-04-19T10:12:15;3.88;;;1.52;;
34236;SDS011;20501;45.956;13.632;2023-04-19T10:14:40;3.42;;;1.40;;
34236;SDS011;20501;45.956;13.632;2023-04-19T10:17:07;1.95;;;1.45;;
34236;SDS011;20501;45.956;13.632;2023-04-19T10:19:33;4.85;;;1.80;;
34236;SDS011;20501;45.956;13.632;2023-04-19T10:24:29;13.50;;;5.45;;
34236;SDS011;20501;45.956;13.632;2023-04-19T10:27:16;4.15;;;2.00;;
34236;SDS011;20501;45.956;13.632;2023-04-19T10:32:15;2.75;;;1.70;;
34236;SDS011;20501;45.956;13.632;2023-04-19T10:34:41;2.50;;;1.50;;
34236;SDS011;20501;45.956;13.632;2023-04-19T10:37:09;2.88;;;1.80;;
34236;SDS011;20501;45.956;13.632;2023-04-19T10:39:38;1.90;;;1.63;;
34236;SDS011;20501;45.956;13.632;2023-04-19T10:42:07;1.83;;;1.58;;
34236;SDS011;20501;45.956;13.632;2023-04-19T10:44:33;2.47;;;1.90;;
34236;SDS011;20501;45.956;13.632;2023-04-19T10:46:58;2.97;;;1.70;;
34236;SDS011;20501;45.956;13.632;2023-04-19T10:49:25;1.73;;;1.10;;
34236;SDS011;20501;45.956;13.632;2023-04-19T10:51:52;2.05;;;1.35;;
34236;SDS011;20501;45.956;13.632;2023-04-19T10:57:07;2.08;;;1.42;;
34236;SDS011;20501;45.956;13.632;2023-04-19T10:59:34;1.60;;;1.40;;
34236;SDS011;20501;45.956;13.632;2023-04-19T11:07:15;1.92;;;1.38;;
34236;SDS011;20501;45.956;13.632;2023-04-19T11:09:45;4.35;;;1.83;;
34236;SDS011;20501;45.956;13.632;2023-04-19T11:12:15;3.50;;;2.25;;
34236;SDS011;20501;45.956;13.632;2023-04-19T11:14:45;4.75;;;2.45;;
34236;SDS011;20501;45.956;13.632;2023-04-19T11:19:59;3.17;;;2.08;;
34236;SDS011;20501;45.956;13.632;2023-04-19T11:22:32;4.50;;;2.47;;
34236;SDS011;20501;45.956;13.632;2023-04-19T11:25:05;3.47;;;2.10;;
34236;SDS011;20501;45.956;13.632;2023-04-19T11:27:31;4.82;;;2.67;;
34236;SDS011;20501;45.956;13.632;2023-04-19T11:30:01;3.42;;;2.25;;
34236;SDS011;20501;45.956;13.632;2023-04-19T11:32:30;3.97;;;2.08;;
34236;SDS011;20501;45.956;13.632;2023-04-19T11:34:56;5.22;;;2.50;;
34236;SDS011;20501;45.956;13.632;2023-04-19T11:37:22;3.10;;;2.15;;
34236;SDS011;20501;45.956;13.632;2023-04-19T11:39:47;4.22;;;2.10;;
34236;SDS011;20501;45.956;13.632;2023-04-19T11:42:16;2.80;;;2.22;;
34236;SDS011;20501;45.956;13.632;2023-04-19T11:44:47;3.42;;;1.92;;
34236;SDS011;20501;45.956;13.632;2023-04-19T11:47:16;6.43;;;2.45;;
34236;SDS011;20501;45.956;13.632;2023-04-19T11:49:42;3.90;;;2.20;;
34236;SDS011;20501;45.956;13.632;2023-04-19T11:52:07;2.90;;;1.65;;
34236;SDS011;20501;45.956;13.632;2023-04-19T11:54:33;2.50;;;2.05;;
34236;SDS011;20501;45.956;13.632;2023-04-19T11:57:05;2.63;;;1.80;;
34236;SDS011;20501;45.956;13.632;2023-04-19T11:59:32;1.77;;;1.67;;
34236;SDS011;20501;45.956;13.632;2023-04-19T12:02:08;4.15;;;1.80;;
34236;SDS011;20501;45.956;13.632;2023-04-19T12:04:35;4.28;;;1.50;;
34236;SDS011;20501;45.956;13.632;2023-04-19T12:07:03;3.22;;;2.10;;
34236;SDS011;20501;45.956;13.632;2023-04-19T12:09:31;4.07;;;1.70;;
34236;SDS011;20501;45.956;13.632;2023-04-19T12:11:57;1.98;;;1.55;;
34236;SDS011;20501;45.956;13.632;2023-04-19T12:14:23;5.88;;;1.77;;
34236;SDS011;20501;45.956;13.632;2023-04-19T12:19:35;6.43;;;1.80;;
34236;SDS011;20501;45.956;13.632;2023-04-19T12:22:13;2.10;;;1.58;;
34236;SDS011;20501;45.956;13.632;2023-04-19T12:24:49;1.67;;;1.58;;
34236;SDS011;20501;45.956;13.632;2023-04-19T12:27:16;3.85;;;1.80;;
34236;SDS011;20501;45.956;13.632;2023-04-19T12:29:42;2.67;;;1.65;;
34236;SDS011;20501;45.956;13.632;2023-04-19T12:32:08;4.88;;;1.60;;
34236;SDS011;20501;45.956;13.632;2023-04-19T12:37:00;3.13;;;1.90;;
34236;SDS011;20501;45.956;13.632;2023-04-19T12:39:27;3.67;;;2.28;;
34236;SDS011;20501;45.956;13.632;2023-04-19T12:41:53;4.95;;;2.03;;
34236;SDS011;20501;45.956;13.632;2023-04-19T12:44:18;4.13;;;2.53;;
34236;SDS011;20501;45.956;13.632;2023-04-19T12:46:44;4.57;;;2.03;;
34236;SDS011;20501;45.956;13.632;2023-04-19T12:49:09;4.10;;;1.90;;
34236;SDS011;20501;45.956;13.632;2023-04-19T12:51:35;2.60;;;1.90;;
34236;SDS011;20501;45.956;13.632;2023-04-19T12:54:00;3.10;;;1.92;;
34236;SDS011;20501;45.956;13.632;2023-04-19T12:56:26;2.92;;;2.13;;
34236;SDS011;20501;45.956;13.632;2023-04-19T12:58:52;4.65;;;2.50;;
34236;SDS011;20501;45.956;13.632;2023-04-19T13:01:17;3.05;;;2.42;;
34236;SDS011;20501;45.956;13.632;2023-04-19T13:03:43;3.67;;;2.33;;
34236;SDS011;20501;45.956;13.632;2023-04-19T13:06:08;2.65;;;2.00;;
34236;SDS011;20501;45.956;13.632;2023-04-19T13:08:37;6.35;;;1.77;;
34236;SDS011;20501;45.956;13.632;2023-04-19T13:11:02;2.88;;;1.95;;
34236;SDS011;20501;45.956;13.632;2023-04-19T13:13:28;3.97;;;2.00;;
34236;SDS011;20501;45.956;13.632;2023-04-19T13:15:53;3.08;;;1.92;;
34236;SDS011;20501;45.956;13.632;2023-04-19T13:18:19;2.30;;;1.85;;
34236;SDS011;20501;45.956;13.632;2023-04-19T13:20:46;4.13;;;1.90;;
34236;SDS011;20501;45.956;13.632;2023-04-19T13:23:12;3.65;;;2.10;;
34236;SDS011;20501;45.956;13.632;2023-04-19T13:25:37;6.07;;;1.70;;
34236;SDS011;20501;45.956;13.632;2023-04-19T13:28:03;2.47;;;1.45;;
34236;SDS011;20501;45.956;13.632;2023-04-19T13:30:28;3.30;;;1.65;;
34236;SDS011;20501;45.956;13.632;2023-04-19T13:32:53;6.80;;;1.60;;
34236;SDS011;20501;45.956;13.632;2023-04-19T13:35:19;8.18;;;1.50;;
34236;SDS011;20501;45.956;13.632;2023-04-19T13:37:45;3.20;;;1.45;;
34236;SDS011;20501;45.956;13.632;2023-04-19T13:40:11;5.85;;;1.35;;
34236;SDS011;20501;45.956;13.632;2023-04-19T13:42:37;3.22;;;1.30;;
34236;SDS011;20501;45.956;13.632;2023-04-19T13:45:02;5.63;;;1.38;;
34236;SDS011;20501;45.956;13.632;2023-04-19T13:47:28;5.50;;;1.38;;
34236;SDS011;20501;45.956;13.632;2023-04-19T13:49:53;4.70;;;1.60;;
34236;SDS011;20501;45.956;13.632;2023-04-19T13:52:19;4.78;;;1.80;;
34236;SDS011;20501;45.956;13.632;2023-04-19T13:54:45;5.72;;;1.80;;
34236;SDS011;20501;45.956;13.632;2023-04-19T13:57:10;3.00;;;1.42;;
34236;SDS011;20501;45.956;13.632;2023-04-19T13:59:36;3.50;;;2.20;;
34236;SDS011;20501;45.956;13.632;2023-04-19T14:02:02;2.17;;;1.75;;
34236;SDS011;20501;45.956;13.632;2023-04-19T14:04:28;5.00;;;1.90;;
34236;SDS011;20501;45.956;13.632;2023-04-19T14:06:54;2.47;;;1.70;;
34236;SDS011;20501;45.956;13.632;2023-04-19T14:09:19;3.42;;;2.08;;
34236;SDS011;20501;45.956;13.632;2023-04-19T14:11:45;2.55;;;1.75;;
34236;SDS011;20501;45.956;13.632;2023-04-19T14:14:12;2.13;;;1.73;;
34236;SDS011;20501;45.956;13.632;2023-04-19T14:16:37;5.00;;;2.10;;
34236;SDS011;20501;45.956;13.632;2023-04-19T14:19:02;2.85;;;2.38;;
34236;SDS011;20501;45.956;13.632;2023-04-19T14:21:28;8.52;;;2.97;;
34236;SDS011;20501;45.956;13.632;2023-04-19T14:23:55;5.03;;;2.20;;
34236;SDS011;20501;45.956;13.632;2023-04-19T14:26:20;4.53;;;2.33;;
34236;SDS011;20501;45.956;13.632;2023-04-19T14:28:46;8.43;;;3.78;;
34236;SDS011;20501;45.956;13.632;2023-04-19T14:31:11;5.13;;;2.70;;
34236;SDS011;20501;45.956;13.632;2023-04-19T14:33:36;5.13;;;1.73;;
34236;SDS011;20501;45.956;13.632;2023-04-19T14:36:02;2.95;;;1.85;;
34236;SDS011;20501;45.956;13.632;2023-04-19T14:38:28;2.65;;;2.15;;
34236;SDS011;20501;45.956;13.632;2023-04-19T14:40:53;3.05;;;1.95;;
34236;SDS011;20501;45.956;13.632;2023-04-19T14:43:19;2.00;;;1.58;;
34236;SDS011;20501;45.956;13.632;2023-04-19T14:45:46;2.80;;;2.05;;
34236;SDS011;20501;45.956;13.632;2023-04-19T14:48:12;4.88;;;2.10;;
34236;SDS011;20501;45.956;13.632;2023-04-19T14:50:38;4.63;;;2.67;;
34236;SDS011;20501;45.956;13.632;2023-04-19T14:53:03;2.15;;;1.70;;